Terminal Aerodrome Forecast
Issued by NWS

Home | Current Version | Previous Version | Text Only | Print | Product List | Glossary On
Versions: 1 2 3 4 5 6 7 8 9 10 11 12 13 14 15 16
312
FTUS41 KPHI 261724
TAFPNE
TAF
KPNE 261724Z 2618/2718 15010G18KT P6SM BKN050
     FM262100 17009KT P6SM BKN035
     FM270400 24006KT 5SM -SHRA OVC015
     FM271300 28005KT P6SM -SHRA OVC035
     FM271600 28007KT P6SM BKN250=

USA.gov is the U.S. government's official web portal to all federal, state and local government web resources and services.